Verbena, Alabama
Current Conditions -  °F | °C
As of 2:15 PM on Wednesday 28 Jan 2015 (Local Time) from K1A9 Reporting Station
Clear Clear  
Wind Chill: 56°   Ceiling: Unl
Heat Index: 56°   Visibility: 10mi
Dew Point: 30°   Wind: 0mph
Humidity: 37%   Direction: NA
Pressure: 30.23"   Gusts: NA
Location:  32.75°N, 86.51°W
Report Text: K1A9 282015Z AUTO 00000KT 10SM CLR 14/M01 A3023 RMK AO2 T01361010
Loading
Personal Weather Stations






























Interactive Weather Map New forecast layout! Learn more

10-Day Weather Forecast

Advertisements
Track Severe Weather on mobile